Yardley, Pennsylvania
Current Conditions -  °F | °C
As of 2:53 PM on Thursday 23 Oct 2014 (Local Time) from KTTN Reporting Station
Light Rain Light Rain  
Wind Chill: 11°   Ceiling: 4300
Heat Index: 11°   Visibility: 10mi
Dew Point:   Wind: 10mph
Humidity: 83%   Direction: 310°NW
Pressure: 29.74"   Gusts: 20mph
Location:  40.1994°N, 74.8145°W
Report Text: KTTN 231853Z 31009G17KT 10SM -RA FEW030 BKN043 OVC050 11/08 A2974 RMK AO2 SLP065 P0001 T01110083
Loading
Personal Weather Stations






























Interactive Weather Map
Tropical Storm Tracking
New forecast layout! Learn more

10-Day Weather Forecast

Advertisements
Track Severe Weather on mobile